首页
METAR-TAF:

METAR-TAF

机场 :

Sussex Airport

Sussex, 新泽西州, 美国

纬度: 41-12-01N, 经度: 074-37-23W, 海拔: 128米

当前天气观测

该预报发布于22分钟前的16:19 UTC
风速3节,风向北转东北
温度 1°C
湿度 75%
气压 1027 hPa
能見度: 16.1公里
阴天层高于1300英尺

METAR: KFWN 131619Z AUTO 03003KT 10SM OVC013 01/M03 A3034 RMK AO2 T00111033

时间: 11:41 (16:41 UTC)


TAF: 丢失

超过4000个机场的气象观测和天气预报(METAR&TAF报告)。

可查询的气象台以黄色和红色小点在地图上表示。

将鼠标移到小点上方,可查看气象台名称。

然后点击查看天气观测和预报。

如需切换地图:点击带黑十字的绿色按钮放大地图;点击带横线的绿色按钮缩小地图;或者点击绿色箭头查看邻近地区的地图。


METAR-TAF: